Time;durP1;ratioP1;P1;durP2;ratioP2;P2;SDS_P1;SDS_P2;PMS_P1;PMS_P2;Temp;Humidity;BMP_temperature;BMP_pressure;BME280_temperature;BME280_humidity;BME280_pressure;Samples;Min_cycle;Max_cycle;Signal;HPM_P1;HPM_P2
2021/06/19 00:00:03;;;;;;;6.75;3.30;;;;;;;24.54;56.26;100284.56;5096001;27;20131;-73
2021/06/19 00:02:29;;;;;;;5.68;3.35;;;;;;;24.47;57.40;100292.84;5083308;28;20119;-72
2021/06/19 00:04:54;;;;;;;9.73;4.00;;;;;;;24.35;57.78;100294.81;5090230;28;20129;-72
2021/06/19 00:07:19;;;;;;;6.93;3.60;;;;;;;24.28;57.94;100286.88;5089354;28;20063;-73
2021/06/19 00:09:45;;;;;;;7.18;3.83;;;;;;;24.27;57.82;100287.97;5089506;27;20054;-72
2021/06/19 00:12:11;;;;;;;5.78;3.03;;;;;;;24.32;56.43;100284.50;5089159;27;20068;-72
2021/06/19 00:14:36;;;;;;;6.70;3.17;;;;;;;24.35;56.95;100290.22;5089529;28;20400;-72
2021/06/19 00:17:02;;;;;;;7.60;3.13;;;;;;;24.43;55.87;100283.59;5090567;27;20081;-72
2021/06/19 00:19:27;;;;;;;5.35;3.15;;;;;;;24.46;57.83;100272.31;5089974;28;20036;-72
2021/06/19 00:21:53;;;;;;;7.60;3.50;;;;;;;24.44;57.59;100254.69;5089677;28;20047;-72
2021/06/19 00:24:20;;;;;;;6.22;3.50;;;;;;;24.41;57.02;100255.16;5087193;28;20315;-72
2021/06/19 00:26:47;;;;;;;6.43;3.67;;;;;;;24.41;58.15;100252.44;5069228;28;20033;-72
2021/06/19 00:29:16;;;;;;;5.72;3.72;;;;;;;24.34;57.80;100258.88;5089504;27;20047;-72
2021/06/19 00:31:43;;;;;;;5.07;3.15;;;;;;;24.34;57.44;100276.97;5090040;27;20115;-72
2021/06/19 00:34:09;;;;;;;7.15;3.20;;;;;;;24.44;56.11;100284.41;5103939;27;20032;-72
2021/06/19 00:36:34;;;;;;;6.15;3.00;;;;;;;24.44;57.11;100270.88;5088246;27;20038;-72
2021/06/19 00:38:59;;;;;;;4.53;2.83;;;;;;;24.52;56.37;100284.00;5089568;28;20036;-73
2021/06/19 00:41:26;;;;;;;7.10;3.63;;;;;;;24.56;57.38;100304.88;5087644;28;20028;-72
2021/06/19 00:43:51;;;;;;;7.00;3.85;;;;;;;24.59;57.00;100319.78;5089250;27;20055;-72
2021/06/19 00:46:17;;;;;;;8.77;4.25;;;;;;;24.58;56.88;100321.66;5089065;27;20134;-72
2021/06/19 00:48:42;;;;;;;11.02;4.38;;;;;;;24.53;57.56;100321.59;5089933;28;20028;-72
2021/06/19 00:51:07;;;;;;;7.30;4.00;;;;;;;24.51;58.19;100323.72;5089130;27;20078;-72
2021/06/19 00:53:33;;;;;;;7.60;4.00;;;;;;;24.54;58.15;100325.94;5089747;27;20445;-73
2021/06/19 00:56:00;;;;;;;8.20;4.30;;;;;;;24.57;56.93;100341.66;5092611;27;20291;-72
2021/06/19 00:58:26;;;;;;;9.38;4.70;;;;;;;24.58;57.22;100351.41;5099092;28;20048;-73
2021/06/19 01:00:51;;;;;;;10.60;4.53;;;;;;;24.51;58.33;100347.25;5096501;27;20043;-72
2021/06/19 01:03:16;;;;;;;10.30;5.07;;;;;;;24.56;57.81;100345.41;5091703;28;20039;-73
2021/06/19 01:05:44;;;;;;;9.10;4.60;;;;;;;24.48;58.34;100336.91;5088741;28;20040;-73
2021/06/19 01:08:09;;;;;;;7.50;4.47;;;;;;;24.47;59.06;100346.09;5088030;27;20032;-72
2021/06/19 01:10:34;;;;;;;8.68;4.55;;;;;;;24.45;59.50;100340.09;5089673;27;20036;-72
2021/06/19 01:13:00;;;;;;;11.52;4.63;;;;;;;24.40;59.47;100348.13;5099971;27;20128;-72
2021/06/19 01:15:26;;;;;;;8.52;4.60;;;;;;;24.34;59.62;100342.66;5090153;28;20572;-72
2021/06/19 01:17:51;;;;;;;7.30;4.15;;;;;;;24.31;60.35;100348.56;5088175;28;20040;-72
2021/06/19 01:20:19;;;;;;;7.55;4.00;;;;;;;24.35;58.56;100338.88;5092862;27;20051;-72
2021/06/19 01:22:48;;;;;;;7.70;4.50;;;;;;;24.42;58.58;100346.00;5090535;28;20050;-72
2021/06/19 01:25:18;;;;;;;7.55;4.68;;;;;;;24.43;58.88;100355.72;5088528;27;20036;-72
2021/06/19 01:27:43;;;;;;;7.55;4.00;;;;;;;24.44;58.58;100351.97;5074560;28;20111;-72
2021/06/19 01:30:10;;;;;;;7.43;4.32;;;;;;;24.46;58.80;100357.97;5088243;27;20131;-73
2021/06/19 01:32:37;;;;;;;6.72;4.20;;;;;;;24.44;59.60;100352.78;5088537;28;20051;-72
2021/06/19 01:35:04;;;;;;;7.13;4.28;;;;;;;24.41;60.30;100347.03;5090160;28;20492;-72
2021/06/19 01:37:29;;;;;;;9.27;4.53;;;;;;;24.40;60.15;100348.13;5092434;27;20071;-72
2021/06/19 01:40:09;;;;;;;5.97;4.10;;;;;;;24.42;59.26;100343.28;5092353;27;20051;-72
2021/06/19 01:42:39;;;;;;;7.70;4.30;;;;;;;24.42;59.59;100343.28;5092158;27;20617;-72
2021/06/19 01:45:10;;;;;;;8.18;4.30;;;;;;;24.34;61.15;100342.66;5092552;28;20119;-72
2021/06/19 01:47:35;;;;;;;7.10;4.22;;;;;;;24.32;59.86;100339.38;5092416;28;20036;-72
2021/06/19 01:50:08;;;;;;;9.25;4.60;;;;;;;24.38;59.88;100341.09;5092381;28;20039;-72
2021/06/19 01:52:33;;;;;;;10.23;4.75;;;;;;;24.30;60.57;100336.09;5091002;28;20034;-73
2021/06/19 01:54:59;;;;;;;10.98;5.05;;;;;;;24.32;60.10;100341.25;5092602;27;20036;-72
2021/06/19 01:57:24;;;;;;;8.02;4.53;;;;;;;24.27;62.13;100339.28;5103801;27;20065;-72
2021/06/19 01:59:59;;;;;;;8.38;4.45;;;;;;;24.27;60.67;100346.59;5102754;27;20135;-72
2021/06/19 02:02:24;;;;;;;10.13;4.85;;;;;;;24.24;60.63;100358.72;5091585;27;20551;-72
2021/06/19 02:04:50;;;;;;;7.25;4.07;;;;;;;24.24;60.82;100358.72;5091369;27;20128;-72
2021/06/19 02:07:15;;;;;;;4.72;3.10;;;;;;;24.26;60.67;100356.56;5091358;27;20032;-72
2021/06/19 02:09:40;;;;;;;8.32;4.75;;;;;;;24.23;62.72;100357.06;5091064;28;20121;-72
2021/06/19 02:12:06;;;;;;;9.50;5.13;;;;;;;24.17;61.67;100358.88;5091402;27;20043;-72
2021/06/19 02:14:31;;;;;;;6.32;4.32;;;;;;;24.17;61.41;100366.97;5090241;28;20044;-72
2021/06/19 02:16:57;;;;;;;6.50;4.00;;;;;;;24.20;61.33;100356.75;5091955;27;20028;-72
2021/06/19 02:19:23;;;;;;;8.07;4.57;;;;;;;24.15;61.45;100352.91;5091400;27;20135;-72
2021/06/19 02:21:48;;;;;;;6.10;4.15;;;;;;;24.16;62.04;100356.41;5091858;27;20056;-72
2021/06/19 02:24:14;;;;;;;7.75;3.97;;;;;;;24.19;61.12;100347.00;5090482;27;20083;-72
2021/06/19 02:26:39;;;;;;;8.43;4.35;;;;;;;24.15;63.04;100343.97;5091925;27;20047;-72
2021/06/19 02:29:04;;;;;;;8.63;4.10;;;;;;;24.17;61.37;100336.44;5093093;28;20072;-72
2021/06/19 02:31:30;;;;;;;5.47;3.75;;;;;;;24.17;61.58;100337.25;5093251;28;20028;-72
2021/06/19 02:33:55;;;;;;;8.00;3.83;;;;;;;24.15;62.41;100335.88;5107498;27;20437;-72
2021/06/19 02:36:20;;;;;;;5.95;3.83;;;;;;;24.07;61.84;100336.25;5101807;27;20397;-72
2021/06/19 02:38:46;;;;;;;5.57;4.03;;;;;;;24.05;63.95;100330.28;5092069;28;20036;-72
2021/06/19 02:41:11;;;;;;;9.15;4.40;;;;;;;24.02;61.93;100328.91;5089449;28;20036;-72
2021/06/19 02:43:36;;;;;;;6.35;4.50;;;;;;;23.99;63.46;100332.09;5091194;28;20111;-72
2021/06/19 02:46:02;;;;;;;10.27;4.75;;;;;;;23.93;65.06;100323.09;5090126;27;20075;-72
2021/06/19 02:48:28;;;;;;;6.10;3.80;;;;;;;23.91;63.15;100327.94;5089501;28;20492;-72
2021/06/19 02:50:53;;;;;;;6.95;3.83;;;;;;;23.93;62.21;100322.25;5090684;28;20126;-72
2021/06/19 02:53:18;;;;;;;7.25;3.53;;;;;;;23.94;62.75;100318.50;5091471;27;20039;-72
2021/06/19 02:55:44;;;;;;;6.72;3.53;;;;;;;23.90;63.03;100318.16;5097831;27;20064;-72
2021/06/19 02:58:12;;;;;;;7.10;4.03;;;;;;;23.84;63.93;100321.06;5094611;27;20032;-73
2021/06/19 03:00:38;;;;;;;6.25;4.05;;;;;;;23.77;63.06;100315.81;5090856;27;20032;-72
2021/06/19 03:03:04;;;;;;;7.50;4.20;;;;;;;23.71;63.34;100309.44;5090735;27;20036;-72
2021/06/19 03:05:31;;;;;;;8.13;3.75;;;;;;;23.73;64.05;100317.31;5090476;27;20048;-72
2021/06/19 03:07:57;;;;;;;4.85;3.45;;;;;;;23.76;63.06;100329.53;5090323;28;20040;-72
2021/06/19 03:10:26;;;;;;;9.23;3.75;;;;;;;23.82;63.25;100328.56;5090295;27;20428;-72
2021/06/19 03:12:51;;;;;;;9.23;4.93;;;;;;;23.75;65.48;100323.31;5091103;28;20075;-72
2021/06/19 03:15:17;;;;;;;11.65;4.80;;;;;;;23.74;64.77;100322.53;5091613;28;20519;-72
2021/06/19 03:17:42;;;;;;;12.57;5.57;;;;;;;23.84;64.50;100324.56;5090165;28;20089;-72
2021/06/19 03:20:10;;;;;;;11.88;5.40;;;;;;;23.84;64.84;100321.06;5091117;28;20142;-73
2021/06/19 03:22:45;;;;;;;9.82;4.80;;;;;;;23.76;66.55;100326.84;5092312;27;20068;-72
2021/06/19 03:25:14;;;;;;;8.18;4.70;;;;;;;23.65;66.28;100318.53;5092383;28;20082;-72
2021/06/19 03:27:40;;;;;;;5.78;4.07;;;;;;;23.61;66.25;100327.38;5091646;27;20051;-72
2021/06/19 03:30:06;;;;;;;5.80;3.88;;;;;;;23.54;66.19;100328.31;5089389;27;20032;-73
2021/06/19 03:32:31;;;;;;;6.35;4.10;;;;;;;23.50;65.58;100324.50;5092228;28;20035;-72
2021/06/19 03:34:57;;;;;;;7.30;3.80;;;;;;;23.46;66.31;100333.31;5107768;27;20115;-72
2021/06/19 03:37:22;;;;;;;6.03;4.30;;;;;;;23.33;67.46;100339.81;5091140;28;20115;-72
2021/06/19 03:39:47;;;;;;;6.63;4.03;;;;;;;23.25;65.99;100334.81;5089769;28;20059;-72
2021/06/19 03:42:13;;;;;;;6.07;3.83;;;;;;;23.18;66.79;100345.72;5089763;27;20039;-72
2021/06/19 03:44:38;;;;;;;6.38;4.20;;;;;;;23.13;67.07;100342.13;5090217;27;20454;-72
2021/06/19 03:47:03;;;;;;;5.25;3.97;;;;;;;23.11;66.82;100342.34;5089563;27;20324;-72
2021/06/19 03:49:29;;;;;;;6.05;3.78;;;;;;;23.07;67.06;100346.56;5090143;28;20043;-72
2021/06/19 03:51:54;;;;;;;5.38;3.90;;;;;;;23.06;66.51;100347.66;5089802;27;20233;-72
2021/06/19 03:54:20;;;;;;;6.10;3.63;;;;;;;23.03;66.85;100362.44;5089639;28;20064;-73
2021/06/19 03:56:45;;;;;;;5.10;3.88;;;;;;;23.07;67.92;100366.28;5097715;27;20135;-73
2021/06/19 03:59:10;;;;;;;5.57;4.03;;;;;;;23.05;66.89;100365.72;5099814;28;20039;-73
2021/06/19 04:01:36;;;;;;;5.47;4.07;;;;;;;23.02;66.82;100368.06;5089821;27;20124;-73
2021/06/19 04:04:01;;;;;;;6.32;4.03;;;;;;;22.97;68.74;100368.72;5088871;28;20558;-73
2021/06/19 04:06:26;;;;;;;6.55;3.88;;;;;;;22.98;66.15;100374.97;5087609;28;20119;-73
2021/06/19 04:08:52;;;;;;;6.30;3.72;;;;;;;22.98;68.12;100383.91;5085572;28;20035;-72
2021/06/19 04:11:18;;;;;;;9.15;4.75;;;;;;;22.93;67.48;100388.31;5087344;28;20026;-73
2021/06/19 04:13:44;;;;;;;5.75;3.67;;;;;;;22.94;67.25;100393.47;5083716;28;20028;-73
2021/06/19 04:16:10;;;;;;;5.75;3.22;;;;;;;22.98;66.70;100402.78;5098031;28;20023;-73
2021/06/19 04:18:39;;;;;;;5.78;3.60;;;;;;;23.00;67.71;100400.66;5092124;28;20028;-73
2021/06/19 04:21:05;;;;;;;5.90;3.45;;;;;;;23.01;68.13;100407.69;5088145;28;20035;-73
2021/06/19 04:23:31;;;;;;;9.95;5.50;;;;;;;22.93;69.83;100407.19;5082542;28;20023;-73
2021/06/19 04:25:56;;;;;;;7.22;4.20;;;;;;;22.87;67.95;100420.56;5085476;28;20484;-73
2021/06/19 04:28:23;;;;;;;7.90;4.60;;;;;;;22.87;69.87;100427.84;5085233;28;20042;-73
2021/06/19 04:30:48;;;;;;;6.97;4.30;;;;;;;22.85;69.79;100433.47;5086260;28;20609;-73
2021/06/19 04:33:13;;;;;;;5.95;3.67;;;;;;;22.85;67.95;100432.63;5086793;27;20036;-73
2021/06/19 04:35:39;;;;;;;6.67;4.10;;;;;;;22.90;69.78;100433.56;5086190;27;20526;-73
2021/06/19 04:38:04;;;;;;;6.95;4.25;;;;;;;22.93;68.32;100426.06;5086126;28;20380;-73
2021/06/19 04:43:31;;;;;;;7.55;5.00;;;;;;;23.07;68.01;100433.72;5075685;28;20059;-74
2021/06/19 04:45:57;;;;;;;7.10;4.50;;;;;;;23.17;67.14;100430.41;5087937;27;20032;-74
2021/06/19 04:48:22;;;;;;;8.23;4.00;;;;;;;23.22;67.82;100432.41;5090902;27;20563;-74
2021/06/19 04:50:48;;;;;;;5.32;3.85;;;;;;;23.28;67.43;100442.22;5088601;28;20373;-74
2021/06/19 04:53:14;;;;;;;6.32;4.10;;;;;;;23.30;68.09;100443.63;5088241;28;20032;-73
2021/06/19 04:55:40;;;;;;;6.25;4.07;;;;;;;23.31;67.89;100444.44;5088409;28;20032;-74
2021/06/19 04:58:05;;;;;;;6.70;4.60;;;;;;;23.31;68.76;100444.44;5087963;27;20032;-74
2021/06/19 05:00:33;;;;;;;8.75;4.82;;;;;;;23.31;68.20;100447.16;5088302;28;20032;-74
2021/06/19 05:02:58;;;;;;;4.93;3.85;;;;;;;23.38;67.74;100447.84;5088488;27;20066;-74
2021/06/19 05:05:24;;;;;;;4.60;3.35;;;;;;;23.47;67.53;100445.59;5087891;28;20115;-74
2021/06/19 05:07:50;;;;;;;6.85;4.07;;;;;;;23.54;68.11;100449.78;5088297;28;20076;-74
2021/06/19 05:10:17;;;;;;;9.25;4.40;;;;;;;23.66;66.83;100443.53;5090456;27;20569;-73
2021/06/19 05:12:47;;;;;;;6.07;4.13;;;;;;;23.79;66.58;100454.09;5090651;28;20032;-74
2021/06/19 05:15:17;;;;;;;6.95;3.63;;;;;;;23.82;68.02;100456.31;5090940;28;20040;-74
2021/06/19 05:17:43;;;;;;;7.75;4.95;;;;;;;23.77;68.51;100456.22;5092073;27;20070;-74
2021/06/19 05:20:08;;;;;;;6.25;3.85;;;;;;;23.80;67.13;100455.72;5091226;27;20119;-74
2021/06/19 05:22:34;;;;;;;6.38;3.95;;;;;;;23.86;66.97;100449.38;5092316;28;20050;-73
2021/06/19 05:24:59;;;;;;;5.65;4.57;;;;;;;23.93;68.00;100454.59;5091670;27;20064;-73
2021/06/19 05:27:24;;;;;;;9.77;5.10;;;;;;;23.93;67.01;100455.44;5091508;28;20024;-74
2021/06/19 05:29:50;;;;;;;8.43;4.80;;;;;;;24.14;66.19;100456.59;5091319;28;20101;-74
2021/06/19 05:32:16;;;;;;;9.10;5.18;;;;;;;24.33;65.79;100450.97;5090316;27;20039;-73
2021/06/19 05:34:42;;;;;;;6.72;4.30;;;;;;;24.47;65.08;100465.03;5081276;28;20407;-74
2021/06/19 05:37:08;;;;;;;7.47;4.20;;;;;;;24.57;65.04;100462.47;5095006;27;20555;-74
2021/06/19 05:39:34;;;;;;;8.50;4.93;;;;;;;24.68;64.20;100461.59;5102098;27;20408;-74
2021/06/19 05:41:59;;;;;;;8.75;5.40;;;;;;;24.78;63.72;100461.72;5091316;28;20032;-74
2021/06/19 05:44:24;;;;;;;11.15;5.22;;;;;;;24.89;63.31;100461.91;5091641;27;20031;-74
2021/06/19 05:46:50;;;;;;;7.78;4.60;;;;;;;24.98;63.53;100460.41;5091427;28;20124;-74
2021/06/19 05:49:15;;;;;;;12.98;5.18;;;;;;;25.17;62.97;100464.50;5092055;28;20077;-74
2021/06/19 05:51:40;;;;;;;7.90;4.32;;;;;;;25.41;62.71;100456.94;5091234;28;20143;-74
2021/06/19 05:54:06;;;;;;;11.65;5.53;;;;;;;25.78;61.70;100459.00;5091418;28;20036;-74
2021/06/19 05:56:31;;;;;;;9.27;5.50;;;;;;;26.18;61.00;100462.41;5091537;27;20031;-74
2021/06/19 05:58:57;;;;;;;8.85;5.20;;;;;;;26.48;59.95;100459.97;5092170;27;20105;-74
2021/06/19 06:01:22;;;;;;;6.38;4.40;;;;;;;26.81;59.98;100457.22;5090600;28;20065;-74
2021/06/19 06:03:50;;;;;;;7.55;4.93;;;;;;;27.14;57.77;100463.38;5089569;28;20441;-74
2021/06/19 06:06:17;;;;;;;10.93;4.35;;;;;;;27.38;56.37;100459.19;5092220;28;20542;-74
2021/06/19 06:08:43;;;;;;;9.52;4.80;;;;;;;27.84;57.04;100461.25;5090957;28;20139;-74
2021/06/19 06:11:09;;;;;;;5.57;3.75;;;;;;;28.17;54.04;100460.78;5089012;28;20036;-74
2021/06/19 06:13:34;;;;;;;5.97;4.40;;;;;;;28.28;52.53;100466.22;5090787;27;20039;-74
2021/06/19 06:16:00;;;;;;;10.10;5.13;;;;;;;28.30;53.92;100464.06;5091400;28;20055;-74
2021/06/19 06:18:25;;;;;;;7.43;4.07;;;;;;;28.70;53.69;100465.13;5089880;27;20374;-74
2021/06/19 06:20:50;;;;;;;7.97;4.20;;;;;;;29.08;50.55;100468.34;5091779;27;20032;-75
2021/06/19 06:23:16;;;;;;;7.65;4.15;;;;;;;29.40;51.82;100468.78;5091293;27;20035;-74
2021/06/19 06:25:42;;;;;;;6.57;4.20;;;;;;;29.92;51.10;100472.09;5092466;27;20704;-74
2021/06/19 06:28:07;;;;;;;7.95;4.85;;;;;;;30.17;49.67;100473.81;5089919;27;20065;-74
2021/06/19 06:30:32;;;;;;;8.15;4.00;;;;;;;30.41;50.04;100473.13;5090222;28;20517;-74
2021/06/19 06:32:58;;;;;;;10.17;4.73;;;;;;;30.64;46.53;100475.09;5091047;28;20112;-74
2021/06/19 06:35:23;;;;;;;11.60;4.75;;;;;;;30.67;47.54;100477.25;5090901;28;20270;-74
2021/06/19 06:37:48;;;;;;;6.20;4.00;;;;;;;30.81;47.00;100474.66;5090508;27;20063;-74
2021/06/19 06:40:14;;;;;;;5.97;3.45;;;;;;;31.08;47.92;100474.16;5090360;28;20028;-74
2021/06/19 06:42:41;;;;;;;6.00;3.42;;;;;;;31.63;45.22;100476.53;5091365;28;20032;-75
2021/06/19 06:45:11;;;;;;;5.65;3.60;;;;;;;32.14;44.60;100481.25;5088855;28;20046;-74
2021/06/19 06:47:40;;;;;;;8.97;4.10;;;;;;;32.32;44.38;100476.88;5091551;28;20036;-74
2021/06/19 06:50:08;;;;;;;6.78;4.15;;;;;;;32.28;43.53;100480.50;5089787;28;20032;-75
2021/06/19 06:52:34;;;;;;;7.88;4.03;;;;;;;32.23;42.93;100475.13;5092506;27;20036;-74
2021/06/19 06:54:59;;;;;;;7.05;4.07;;;;;;;32.31;44.94;100480.72;5091446;28;20119;-75
2021/06/19 06:57:25;;;;;;;5.22;3.50;;;;;;;32.65;41.49;100479.63;5092265;27;20417;-75
2021/06/19 06:59:51;;;;;;;5.75;3.35;;;;;;;32.96;41.43;100479.88;5089013;28;20069;-75
2021/06/19 07:02:16;;;;;;;5.65;3.10;;;;;;;32.68;40.85;100481.78;5090357;27;20043;-75
2021/06/19 07:04:41;;;;;;;5.05;3.05;;;;;;;33.13;41.16;100476.59;5089931;28;20035;-75
2021/06/19 07:07:07;;;;;;;8.43;3.38;;;;;;;33.39;41.08;100478.78;5091144;27;20040;-75
2021/06/19 07:09:32;;;;;;;7.22;3.20;;;;;;;33.58;40.68;100476.75;5071827;28;20503;-74
2021/06/19 07:11:58;;;;;;;5.35;2.70;;;;;;;33.84;39.80;100478.91;5089491;28;20103;-75
2021/06/19 07:14:23;;;;;;;7.03;3.40;;;;;;;33.36;40.75;100466.50;5091569;27;20048;-74
2021/06/19 07:16:48;;;;;;;6.80;3.30;;;;;;;33.52;39.44;100471.66;5091830;27;20067;-75
2021/06/19 07:19:14;;;;;;;6.15;3.50;;;;;;;34.02;39.95;100466.97;5090678;28;20028;-75
2021/06/19 07:21:40;;;;;;;6.57;3.10;;;;;;;34.04;38.19;100470.22;5091107;28;20043;-75
2021/06/19 07:24:05;;;;;;;4.95;2.80;;;;;;;34.07;37.00;100468.00;5092680;27;20035;-75
2021/06/19 07:26:31;;;;;;;5.90;2.83;;;;;;;34.04;36.46;100463.94;5090978;27;20036;-75
2021/06/19 07:28:56;;;;;;;6.53;2.97;;;;;;;34.63;36.44;100461.13;5091445;27;20369;-75
2021/06/19 07:31:22;;;;;;;4.57;2.67;;;;;;;34.59;35.89;100458.19;5091125;27;20134;-75
2021/06/19 07:33:47;;;;;;;4.50;2.55;;;;;;;34.91;36.36;100450.75;5088495;28;20404;-75
2021/06/19 07:36:12;;;;;;;4.43;2.35;;;;;;;35.30;36.16;100455.44;5089649;27;20048;-74
2021/06/19 07:38:38;;;;;;;2.25;1.63;;;;;;;35.82;36.62;100464.91;5088558;28;20032;-74
2021/06/19 07:41:03;;;;;;;6.20;2.70;;;;;;;35.83;34.18;100458.28;5091149;27;20047;-75
2021/06/19 07:43:29;;;;;;;5.53;2.50;;;;;;;36.29;35.34;100460.34;5088542;28;20123;-74
2021/06/19 07:45:56;;;;;;;7.35;3.03;;;;;;;36.15;33.21;100463.28;5090622;28;20020;-74
2021/06/19 07:48:21;;;;;;;6.72;3.00;;;;;;;36.21;32.29;100457.59;5091789;27;20403;-74
2021/06/19 07:50:47;;;;;;;5.60;2.40;;;;;;;35.99;33.84;100455.84;5089650;28;20032;-74
2021/06/19 07:53:12;;;;;;;4.70;2.58;;;;;;;36.41;31.75;100454.19;5090622;27;20032;-75
2021/06/19 07:55:38;;;;;;;4.03;2.60;;;;;;;36.37;31.84;100444.94;5090746;27;20101;-74
2021/06/19 07:58:04;;;;;;;5.72;2.55;;;;;;;35.66;32.00;100440.63;5089818;27;20028;-74
2021/06/19 08:00:30;;;;;;;5.88;2.60;;;;;;;35.68;31.61;100443.88;5090282;27;20180;-75
2021/06/19 08:02:57;;;;;;;4.25;2.38;;;;;;;35.91;30.41;100449.19;5090588;28;20036;-74
2021/06/19 08:05:22;;;;;;;4.45;2.20;;;;;;;35.96;30.33;100443.53;5089799;27;20039;-74
2021/06/19 08:07:47;;;;;;;5.53;2.50;;;;;;;36.54;31.62;100444.09;5090106;28;20425;-74
2021/06/19 08:10:13;;;;;;;4.70;2.20;;;;;;;36.62;31.86;100437.78;5089425;27;20028;-75
2021/06/19 08:12:40;;;;;;;4.75;2.20;;;;;;;37.22;30.09;100433.13;5095220;27;20039;-74
2021/06/19 08:15:06;;;;;;;4.57;2.13;;;;;;;37.20;29.94;100429.91;5090482;27;20024;-74
2021/06/19 08:17:31;;;;;;;5.05;2.83;;;;;;;37.84;28.06;100437.09;5090630;28;20036;-74
2021/06/19 08:19:57;;;;;;;4.50;2.13;;;;;;;37.84;28.76;100448.13;5090141;27;20062;-74
2021/06/19 08:22:22;;;;;;;4.37;2.00;;;;;;;37.99;29.35;100446.69;5089727;27;20064;-75
2021/06/19 08:24:48;;;;;;;4.05;2.00;;;;;;;37.91;28.18;100444.81;5091577;27;20699;-75
2021/06/19 08:27:14;;;;;;;3.35;1.77;;;;;;;37.97;29.49;100443.44;5090203;27;20132;-75
2021/06/19 08:29:40;;;;;;;3.30;1.70;;;;;;;38.10;29.59;100447.13;5089673;27;20032;-75
2021/06/19 08:32:11;;;;;;;5.60;2.83;;;;;;;38.47;27.17;100436.19;5088827;27;20034;-75
2021/06/19 08:34:37;;;;;;;4.53;2.13;;;;;;;38.51;27.87;100431.59;5088173;28;20143;-75
2021/06/19 08:37:03;;;;;;;4.00;2.08;;;;;;;38.66;25.36;100439.19;5089358;27;20115;-73
2021/06/19 08:39:28;;;;;;;3.72;2.22;;;;;;;38.83;26.24;100432.63;5088290;28;20063;-73
2021/06/19 08:41:56;;;;;;;3.20;2.20;;;;;;;39.01;26.59;100427.72;5089162;28;20123;-73
2021/06/19 08:44:28;;;;;;;4.38;2.33;;;;;;;38.84;25.58;100425.97;5090772;27;20044;-73
2021/06/19 08:46:56;;;;;;;4.82;2.20;;;;;;;38.63;27.60;100424.09;5093662;28;20090;-72
2021/06/19 08:49:22;;;;;;;5.70;2.40;;;;;;;38.79;26.11;100417.91;5093805;28;20032;-73
2021/06/19 08:51:50;;;;;;;4.38;1.80;;;;;;;38.73;27.65;100411.00;5092588;28;20357;-72
2021/06/19 08:54:16;;;;;;;3.53;2.03;;;;;;;38.87;27.65;100406.72;5093656;28;20040;-73
2021/06/19 08:56:42;;;;;;;4.78;2.10;;;;;;;38.47;26.33;100408.53;5092481;28;20032;-72
2021/06/19 08:59:08;;;;;;;7.03;2.20;;;;;;;39.39;25.58;100407.16;5093765;28;20036;-73
2021/06/19 09:01:34;;;;;;;3.47;1.75;;;;;;;39.53;24.21;100398.50;5092691;27;20032;-74
2021/06/19 09:04:03;;;;;;;3.63;1.80;;;;;;;39.58;25.33;100401.00;5093196;27;20065;-74
2021/06/19 09:06:29;;;;;;;5.63;2.60;;;;;;;39.94;24.33;100399.25;5091510;28;20071;-74
2021/06/19 09:09:10;;;;;;;5.78;2.28;;;;;;;39.58;24.56;100401.00;5092299;28;20036;-74
2021/06/19 09:11:35;;;;;;;;;;;;;;;38.70;26.38;100392.34;5092623;28;20032;-74
2021/06/19 09:14:12;;;;;;;4.25;1.95;;;;;;;38.52;25.94;100397.28;5092748;28;20292;-74
2021/06/19 09:16:40;;;;;;;5.53;2.47;;;;;;;38.14;26.66;100390.03;5083259;28;20151;-74
2021/06/19 09:19:33;;;;;;;5.53;1.98;;;;;;;37.75;27.51;100401.28;5089929;28;20036;-74
2021/06/19 09:22:08;;;;;;;3.90;1.83;;;;;;;37.65;27.79;100390.66;5090741;27;20040;-74
2021/06/19 09:24:42;;;;;;;7.05;2.30;;;;;;;37.75;26.76;100389.44;5087686;28;20081;-74
2021/06/19 09:27:38;;;;;;;3.90;2.03;;;;;;;36.71;29.37;100390.94;5085394;28;20036;-74
2021/06/19 09:30:09;;;;;;;4.78;1.90;;;;;;;36.58;30.45;100380.94;5092515;28;20055;-73
2021/06/19 09:32:48;;;;;;;3.67;2.00;;;;;;;36.76;31.02;100377.75;5090153;28;20036;-74
2021/06/19 09:35:17;;;;;;;4.33;2.13;;;;;;;36.87;29.18;100377.38;5073029;28;20043;-74
2021/06/19 09:37:45;;;;;;;3.88;2.10;;;;;;;36.95;29.22;100379.28;5086010;28;20358;-73
2021/06/19 09:40:28;;;;;;;5.18;2.00;;;;;;;37.35;28.16;100382.44;5091513;27;20391;-74
2021/06/19 09:43:06;;;;;;;6.70;2.80;;;;;;;37.23;28.03;100385.09;5093220;28;20036;-74
2021/06/19 09:45:31;;;;;;;6.18;2.47;;;;;;;36.94;28.84;100385.91;5092198;28;20035;-74
2021/06/19 09:47:56;;;;;;;5.55;2.70;;;;;;;36.82;28.87;100381.13;5093289;28;20028;-74
2021/06/19 09:50:22;;;;;;;8.03;2.73;;;;;;;36.04;29.00;100368.41;5098822;27;20039;-74
2021/06/19 09:52:47;;;;;;;6.22;2.72;;;;;;;35.46;30.40;100370.53;5089253;28;20324;-73
2021/06/19 09:55:15;;;;;;;6.00;3.15;;;;;;;35.88;30.70;100370.06;5090710;28;20064;-74
2021/06/19 09:57:46;;;;;;;3.78;2.40;;;;;;;35.81;30.75;100364.25;5092107;28;20067;-73
2021/06/19 10:00:13;;;;;;;7.90;3.20;;;;;;;35.48;30.38;100351.78;5091552;28;20036;-74
2021/06/19 10:02:39;;;;;;;6.13;3.05;;;;;;;35.42;30.72;100349.50;5091719;28;20056;-74
2021/06/19 10:05:06;;;;;;;7.28;3.30;;;;;;;35.27;30.89;100340.59;5092534;28;20059;-74
2021/06/19 10:07:35;;;;;;;8.05;3.20;;;;;;;35.64;29.88;100329.31;5090511;28;20043;-74
2021/06/19 10:10:04;;;;;;;16.35;5.00;;;;;;;35.12;32.03;100327.34;5091630;27;20059;-73
2021/06/19 10:12:31;;;;;;;13.38;5.40;;;;;;;35.33;31.51;100323.94;5091799;27;20036;-73
2021/06/19 10:15:14;;;;;;;4.63;2.90;;;;;;;35.74;31.07;100315.22;5091980;27;20032;-74
2021/06/19 10:17:42;;;;;;;6.18;3.40;;;;;;;35.89;30.06;100311.94;5091017;28;20455;-73
2021/06/19 10:20:16;;;;;;;5.97;2.90;;;;;;;35.51;30.65;100298.84;5089939;28;20035;-73
2021/06/19 10:22:43;;;;;;;6.75;3.28;;;;;;;35.42;30.90;100297.25;5090148;28;20396;-73
2021/06/19 10:25:12;;;;;;;5.65;3.10;;;;;;;34.70;31.87;100282.16;5091490;28;20093;-73
2021/06/19 10:27:43;;;;;;;5.38;2.95;;;;;;;34.40;33.52;100281.91;5091310;28;20528;-73
2021/06/19 10:30:11;;;;;;;6.15;2.50;;;;;;;34.44;32.65;100274.63;5090171;27;20386;-74
2021/06/19 10:32:44;;;;;;;4.25;2.50;;;;;;;34.83;32.36;100272.97;5090841;28;20622;-74
2021/06/19 10:35:21;;;;;;;4.65;2.95;;;;;;;35.04;31.44;100256.66;5090948;28;20266;-73
2021/06/19 10:37:48;;;;;;;5.80;2.75;;;;;;;35.12;32.58;100261.38;5088494;28;20110;-73
2021/06/19 10:40:21;;;;;;;5.40;2.90;;;;;;;35.38;31.53;100269.63;5090230;27;20488;-73
2021/06/19 10:42:48;;;;;;;5.97;2.70;;;;;;;35.65;29.86;100268.47;5091153;28;20032;-73
2021/06/19 10:45:26;;;;;;;6.45;2.78;;;;;;;35.24;31.33;100257.97;5091131;28;20063;-73
2021/06/19 10:48:08;;;;;;;7.10;3.08;;;;;;;35.34;31.12;100265.09;5091140;28;20028;-73
2021/06/19 10:50:36;;;;;;;5.93;3.05;;;;;;;35.57;30.37;100265.72;5108150;27;20174;-73
2021/06/19 10:53:03;;;;;;;8.18;3.03;;;;;;;35.73;30.18;100259.41;5098335;28;20036;-73
2021/06/19 10:55:29;;;;;;;7.68;3.22;;;;;;;35.96;30.16;100248.13;5093311;28;20081;-73
2021/06/19 10:58:03;;;;;;;4.07;2.40;;;;;;;35.99;31.19;100244.72;5092643;28;20391;-73
2021/06/19 11:00:51;;;;;;;6.22;3.08;;;;;;;36.05;30.40;100237.91;5090539;28;20028;-72
2021/06/19 11:03:17;;;;;;;7.72;3.05;;;;;;;36.33;29.84;100231.97;5090502;27;20028;-72
2021/06/19 11:05:45;;;;;;;8.32;3.47;;;;;;;36.30;28.83;100227.13;5090559;27;20036;-72
2021/06/19 11:08:12;;;;;;;8.02;3.00;;;;;;;36.07;30.93;100227.38;5089382;28;20480;-72
2021/06/19 11:10:50;;;;;;;5.90;3.03;;;;;;;35.91;32.17;100229.06;5088963;28;20459;-72
2021/06/19 11:13:31;;;;;;;5.47;3.15;;;;;;;36.04;30.40;100225.28;5089743;27;20557;-72
2021/06/19 11:16:19;;;;;;;7.65;2.90;;;;;;;35.91;31.30;100218.84;5085145;28;20141;-72
2021/06/19 11:18:50;;;;;;;4.38;2.10;;;;;;;36.05;30.88;100215.09;5067199;28;20131;-72
2021/06/19 11:21:38;;;;;;;6.53;2.85;;;;;;;36.09;29.69;100210.53;5090562;28;20044;-73
2021/06/19 11:24:03;;;;;;;4.72;2.40;;;;;;;36.24;29.34;100206.44;5089810;28;20051;-73
2021/06/19 11:26:45;;;;;;;5.70;2.87;;;;;;;36.13;30.13;100203.25;5090323;27;20040;-72